Time;durP1;ratioP1;P1;durP2;ratioP2;P2;SDS_P1;SDS_P2;PMS_P1;PMS_P2;Temp;Humidity;BMP_temperature;BMP_pressure;BME280_temperature;BME280_humidity;BME280_pressure;Samples;Min_cycle;Max_cycle;Signal;HPM_P1;HPM_P2
2021/05/06 03:23:26;;;;;;;10.77;10.20;;;8.10;99.90;;;;;;4972768;28;20495;-68
2021/05/06 03:25:52;;;;;;;11.10;10.63;;;8.10;99.90;;;;;;4972541;28;20499;-68
2021/05/06 03:28:24;;;;;;;13.07;12.53;;;8.10;99.90;;;;;;4970605;28;20455;-68
2021/05/06 03:31:01;;;;;;;15.17;14.33;;;7.90;99.90;;;;;;4972501;28;20976;-69
2021/05/06 03:42:01;;;;;;;22.90;21.80;;;7.20;99.90;;;;;;4971896;28;20808;-72
2021/05/06 04:17:45;;;;;;;22.73;21.73;;;6.40;99.90;;;;;;4951992;29;20936;-73
2021/05/06 04:25:49;;;;;;;21.43;20.00;;;6.40;99.90;;;;;;4951644;29;20492;-73
2021/05/06 04:31:22;;;;;;;19.73;18.93;;;6.40;99.90;;;;;;4935539;29;20442;-72
2021/05/06 04:36:43;;;;;;;21.27;18.73;;;6.40;99.90;;;;;;4952197;29;20431;-72
2021/05/06 04:39:13;;;;;;;19.87;18.43;;;6.50;99.90;;;;;;4951920;29;20480;-72
2021/05/06 04:41:43;;;;;;;18.23;17.33;;;6.50;99.90;;;;;;4951946;29;20446;-72
2021/05/06 04:55:11;;;;;;;15.80;14.77;;;7.00;99.90;;;;;;4951739;28;20559;-73
2021/05/06 04:58:05;;;;;;;15.83;15.03;;;7.10;99.90;;;;;;4955584;29;20981;-72
2021/05/06 05:06:00;;;;;;;14.93;13.83;;;7.50;99.90;;;;;;4955238;29;20546;-73
2021/05/06 05:08:29;;;;;;;15.37;14.40;;;7.40;99.90;;;;;;4955490;29;20531;-71
2021/05/06 05:13:56;;;;;;;15.17;14.10;;;7.50;99.90;;;;;;4955727;29;20428;-71
2021/05/06 05:19:33;;;;;;;15.33;13.93;;;7.80;99.90;;;;;;4955482;28;20565;-72
2021/05/06 05:24:50;;;;;;;14.37;13.60;;;8.00;99.90;;;;;;4955393;29;20984;-71
2021/05/06 05:27:21;;;;;;;15.80;14.70;;;8.20;99.90;;;;;;4955931;29;20968;-71
2021/05/06 05:29:47;;;;;;;15.60;14.57;;;8.20;99.90;;;;;;4955059;29;20474;-71
2021/05/06 05:32:13;;;;;;;15.20;14.53;;;8.20;99.90;;;;;;4955212;29;20467;-71
2021/05/06 05:34:42;;;;;;;15.40;14.60;;;8.10;99.90;;;;;;4955124;29;20803;-70
2021/05/06 05:37:15;;;;;;;15.70;14.70;;;7.90;99.90;;;;;;4955401;29;20817;-71
2021/05/06 05:39:50;;;;;;;18.03;16.70;;;7.90;99.90;;;;;;4955202;29;20452;-71
2021/05/06 05:42:23;;;;;;;14.57;13.60;;;7.80;99.90;;;;;;4955194;29;20463;-70
2021/05/06 05:48:19;;;;;;;14.27;13.67;;;7.90;99.90;;;;;;4955254;29;20439;-71
2021/05/06 05:56:11;;;;;;;13.30;12.70;;;8.00;99.90;;;;;;4954788;29;21054;-70
2021/05/06 05:58:37;;;;;;;14.43;13.60;;;8.10;99.90;;;;;;4954813;29;20460;-70
2021/05/06 06:01:03;;;;;;;15.13;13.70;;;8.10;99.90;;;;;;4954592;29;20482;-70
2021/05/06 06:03:29;;;;;;;14.70;13.63;;;8.10;99.90;;;;;;4954716;29;20451;-70
2021/05/06 06:05:55;;;;;;;16.80;15.80;;;8.00;99.90;;;;;;4954367;29;20848;-70
2021/05/06 06:08:24;;;;;;;17.30;16.20;;;7.90;99.90;;;;;;4953345;28;20489;-70
2021/05/06 06:10:51;;;;;;;15.97;14.87;;;7.90;99.90;;;;;;4954111;28;20542;-70
2021/05/06 06:13:18;;;;;;;15.10;13.77;;;8.00;99.90;;;;;;4954887;29;20441;-70
2021/05/06 06:15:53;;;;;;;14.00;13.30;;;8.00;99.90;;;;;;4954457;29;20604;-70
2021/05/06 06:18:23;;;;;;;15.00;14.20;;;8.10;99.90;;;;;;4954670;29;20459;-70
2021/05/06 06:20:57;;;;;;;13.10;12.30;;;8.20;99.90;;;;;;4954293;29;20461;-70
2021/05/06 06:23:24;;;;;;;14.23;13.20;;;8.20;99.90;;;;;;4954325;29;20459;-70
2021/05/06 06:25:53;;;;;;;14.30;12.90;;;8.20;99.90;;;;;;4954317;29;20565;-70
2021/05/06 06:28:19;;;;;;;12.07;11.47;;;8.30;99.90;;;;;;4954523;29;20535;-70
2021/05/06 06:30:45;;;;;;;12.80;12.10;;;8.30;99.90;;;;;;4954229;29;20958;-70
2021/05/06 06:33:11;;;;;;;12.83;11.80;;;8.50;99.90;;;;;;4954262;29;20456;-69
2021/05/06 06:35:37;;;;;;;15.73;14.80;;;8.60;99.90;;;;;;4953519;29;20449;-69
2021/05/06 06:38:04;;;;;;;16.83;15.63;;;8.30;99.90;;;;;;4954042;29;20463;-69
2021/05/06 06:40:30;;;;;;;16.77;15.23;;;8.20;99.90;;;;;;4953732;29;20516;-69
2021/05/06 06:42:57;;;;;;;15.37;14.60;;;8.10;99.90;;;;;;4953719;29;20520;-69
2021/05/06 06:45:23;;;;;;;14.93;14.23;;;8.10;99.90;;;;;;4953940;29;20484;-69
2021/05/06 06:47:53;;;;;;;15.33;14.23;;;8.10;99.90;;;;;;4953957;29;20456;-70
2021/05/06 06:50:20;;;;;;;14.90;14.00;;;8.10;99.90;;;;;;4953606;29;20448;-69
2021/05/06 06:52:46;;;;;;;15.30;14.20;;;8.20;99.90;;;;;;4954023;29;20459;-70
2021/05/06 06:55:13;;;;;;;14.00;13.30;;;8.30;99.90;;;;;;4953742;29;20452;-69
2021/05/06 06:57:39;;;;;;;14.90;13.67;;;8.30;99.90;;;;;;4953541;29;20457;-69
2021/05/06 07:00:07;;;;;;;15.57;14.67;;;8.30;99.90;;;;;;4953559;29;20800;-71
2021/05/06 07:02:34;;;;;;;13.73;12.70;;;8.30;99.90;;;;;;4953612;29;20954;-71
2021/05/06 07:05:00;;;;;;;13.10;12.03;;;8.40;99.90;;;;;;4953326;29;20524;-69
2021/05/06 07:07:27;;;;;;;11.83;11.13;;;8.50;99.90;;;;;;4953585;29;20459;-69
2021/05/06 07:09:53;;;;;;;12.27;11.67;;;8.60;99.90;;;;;;4953439;29;20484;-69
2021/05/06 07:12:19;;;;;;;13.73;12.33;;;8.70;99.90;;;;;;4953443;28;20496;-72
2021/05/06 07:14:45;;;;;;;13.43;11.57;;;8.80;99.90;;;;;;4953338;29;20453;-69
2021/05/06 07:17:12;;;;;;;12.13;11.50;;;8.90;99.90;;;;;;4953168;29;20938;-70
2021/05/06 07:19:39;;;;;;;12.33;11.63;;;9.00;99.90;;;;;;4952759;28;20453;-71
2021/05/06 07:22:05;;;;;;;10.67;9.87;;;9.10;99.90;;;;;;4953373;29;20457;-70
2021/05/06 07:24:32;;;;;;;12.07;11.20;;;9.20;99.90;;;;;;4953151;29;20485;-72
2021/05/06 07:26:58;;;;;;;10.90;10.33;;;9.20;99.90;;;;;;4952974;29;20948;-72
2021/05/06 07:29:26;;;;;;;14.10;13.30;;;9.20;99.90;;;;;;4952781;29;20453;-71
2021/05/06 07:31:53;;;;;;;12.20;11.60;;;9.30;99.90;;;;;;4952978;29;21053;-69
2021/05/06 07:34:20;;;;;;;11.50;10.80;;;9.40;99.90;;;;;;4953259;29;20503;-71
2021/05/06 07:36:46;;;;;;;11.70;10.90;;;9.60;99.90;;;;;;4952975;29;20847;-69
2021/05/06 07:39:12;;;;;;;14.70;13.43;;;9.50;99.90;;;;;;4952713;29;20453;-71
2021/05/06 07:41:39;;;;;;;12.03;10.77;;;9.50;99.90;;;;;;4952713;29;20463;-71
2021/05/06 07:44:06;;;;;;;12.43;11.43;;;9.80;99.90;;;;;;4952791;29;20488;-71
2021/05/06 07:46:32;;;;;;;11.50;10.40;;;10.00;99.90;;;;;;4952892;29;20491;-71
2021/05/06 07:48:58;;;;;;;11.37;10.77;;;10.40;99.90;;;;;;4952838;29;20467;-70
2021/05/06 07:51:26;;;;;;;11.97;11.17;;;10.80;99.90;;;;;;4952553;29;20796;-71
2021/05/06 07:53:53;;;;;;;11.07;10.37;;;11.10;99.90;;;;;;4952559;29;20589;-70
2021/05/06 07:56:20;;;;;;;11.37;10.80;;;11.20;99.90;;;;;;4952872;29;20456;-70
2021/05/06 07:58:47;;;;;;;11.53;11.00;;;11.40;99.90;;;;;;4952872;29;20460;-70
2021/05/06 08:01:13;;;;;;;11.93;11.20;;;11.50;99.90;;;;;;4952214;29;20812;-71
2021/05/06 08:03:40;;;;;;;12.47;11.60;;;11.70;99.90;;;;;;4952410;29;20467;-71
2021/05/06 08:06:06;;;;;;;12.20;11.60;;;11.90;99.90;;;;;;4952201;29;20531;-71
2021/05/06 08:08:34;;;;;;;11.37;10.70;;;12.10;99.90;;;;;;4952318;29;20452;-71
2021/05/06 08:11:00;;;;;;;12.50;11.90;;;12.20;99.90;;;;;;4951727;28;20480;-69
2021/05/06 08:13:28;;;;;;;12.10;11.50;;;12.30;99.90;;;;;;4952241;29;20479;-69
2021/05/06 08:15:55;;;;;;;12.30;11.70;;;12.10;99.90;;;;;;4952401;29;20453;-69
2021/05/06 08:18:21;;;;;;;12.23;11.37;;;12.00;99.90;;;;;;4952360;29;20812;-68
2021/05/06 08:20:48;;;;;;;11.67;10.87;;;12.10;99.90;;;;;;4952483;29;20456;-69
2021/05/06 08:23:14;;;;;;;11.07;10.57;;;12.10;99.90;;;;;;4952043;29;20448;-69
2021/05/06 08:25:41;;;;;;;11.77;10.97;;;12.20;99.90;;;;;;4951663;29;20492;-69
2021/05/06 08:28:08;;;;;;;10.73;10.33;;;12.20;99.90;;;;;;4952401;29;20456;-69
2021/05/06 08:30:35;;;;;;;12.73;12.10;;;12.10;99.90;;;;;;4951477;28;20980;-68
2021/05/06 08:33:01;;;;;;;12.17;11.37;;;12.20;99.90;;;;;;4952158;29;20456;-69
2021/05/06 08:35:27;;;;;;;12.00;11.40;;;12.40;99.90;;;;;;4951985;29;20445;-69
2021/05/06 08:37:53;;;;;;;12.50;11.80;;;12.50;99.90;;;;;;4952077;29;20875;-69
2021/05/06 08:40:21;;;;;;;11.33;10.40;;;12.50;99.90;;;;;;4952419;29;20512;-69
2021/05/06 08:42:51;;;;;;;11.27;10.87;;;12.80;99.90;;;;;;4952291;29;20819;-69
2021/05/06 08:45:17;;;;;;;12.60;11.60;;;12.90;99.90;;;;;;4952000;29;20869;-69
2021/05/06 08:47:45;;;;;;;12.33;11.43;;;13.20;99.70;;;;;;4951980;29;20461;-69
2021/05/06 08:50:11;;;;;;;12.70;11.90;;;13.30;99.80;;;;;;4951999;29;20457;-69
2021/05/06 08:52:40;;;;;;;11.97;11.47;;;13.10;99.50;;;;;;4951906;29;20461;-71
2021/05/06 08:55:07;;;;;;;12.60;11.93;;;13.20;99.60;;;;;;4951987;29;20448;-68
2021/05/06 08:57:34;;;;;;;12.70;11.90;;;13.40;99.00;;;;;;4952197;29;20452;-69
2021/05/06 09:00:01;;;;;;;12.87;11.97;;;13.60;99.10;;;;;;4951960;29;20452;-69
2021/05/06 09:02:27;;;;;;;11.50;11.00;;;13.70;98.40;;;;;;4951977;29;20452;-69
2021/05/06 09:04:53;;;;;;;13.10;11.90;;;13.70;98.50;;;;;;4951720;29;20856;-69
2021/05/06 09:07:21;;;;;;;13.90;12.77;;;13.70;98.50;;;;;;4951847;29;20507;-69
2021/05/06 09:09:49;;;;;;;12.37;11.70;;;13.60;98.40;;;;;;4951828;29;20472;-69
2021/05/06 09:12:17;;;;;;;12.40;11.70;;;13.30;98.40;;;;;;4951621;28;20491;-69
2021/05/06 09:14:46;;;;;;;12.93;12.37;;;13.20;98.50;;;;;;4951492;29;20925;-69
2021/05/06 09:17:26;;;;;;;11.00;10.50;;;12.90;99.10;;;;;;4951628;29;20452;-69
2021/05/06 09:19:57;;;;;;;11.60;11.10;;;13.00;99.50;;;;;;4951661;29;20452;-69
2021/05/06 09:22:33;;;;;;;13.47;12.57;;;12.90;98.80;;;;;;4951380;29;20456;-70
2021/05/06 09:25:24;;;;;;;12.47;11.50;;;12.80;98.90;;;;;;4951360;29;20491;-69
2021/05/06 09:28:04;;;;;;;12.33;11.37;;;12.70;99.20;;;;;;4951621;29;20946;-69
2021/05/06 09:30:31;;;;;;;10.73;10.13;;;12.40;99.90;;;;;;4951712;29;20536;-69
2021/05/06 09:33:01;;;;;;;11.47;10.67;;;12.40;99.90;;;;;;4951276;29;20461;-69
2021/05/06 09:35:27;;;;;;;12.53;11.40;;;12.50;99.90;;;;;;4951601;29;20909;-69
2021/05/06 09:37:53;;;;;;;13.03;11.70;;;12.40;99.90;;;;;;4951496;29;20515;-68
2021/05/06 09:40:20;;;;;;;11.53;10.93;;;12.30;99.90;;;;;;4951478;29;20499;-68
2021/05/06 09:42:48;;;;;;;12.00;11.50;;;12.30;99.90;;;;;;4954077;28;20447;-68
2021/05/06 09:45:21;;;;;;;11.80;11.27;;;12.20;99.90;;;;;;4955044;29;20492;-68
2021/05/06 09:48:08;;;;;;;10.53;10.03;;;12.20;99.90;;;;;;4955438;29;20452;-69
2021/05/06 09:50:34;;;;;;;11.50;10.77;;;12.20;99.90;;;;;;4955466;29;20466;-69
2021/05/06 09:53:00;;;;;;;11.90;11.00;;;12.10;99.90;;;;;;4954946;29;20445;-69
2021/05/06 09:55:32;;;;;;;12.13;11.20;;;12.00;99.90;;;;;;4955121;29;20456;-69
2021/05/06 09:58:14;;;;;;;11.50;10.70;;;11.70;99.90;;;;;;4954889;29;20460;-69
2021/05/06 10:00:41;;;;;;;9.90;9.33;;;11.70;99.90;;;;;;4954635;29;20459;-69
2021/05/06 10:03:12;;;;;;;12.00;10.90;;;11.50;99.90;;;;;;4954913;29;20462;-68
2021/05/06 10:05:39;;;;;;;11.57;10.87;;;11.30;99.90;;;;;;4954659;29;20839;-69
2021/05/06 10:08:06;;;;;;;11.20;10.60;;;11.20;99.90;;;;;;4954737;29;20448;-69
2021/05/06 10:10:34;;;;;;;10.87;10.07;;;11.10;99.90;;;;;;4954298;28;20496;-69
2021/05/06 10:13:01;;;;;;;11.20;10.30;;;11.10;99.90;;;;;;4954598;29;20468;-69
2021/05/06 10:15:28;;;;;;;17.23;11.30;;;11.20;99.90;;;;;;4954487;29;20449;-68
2021/05/06 10:17:55;;;;;;;12.27;11.20;;;11.20;99.90;;;;;;4954625;29;20452;-68
2021/05/06 10:20:25;;;;;;;11.40;10.40;;;11.20;99.90;;;;;;4954254;29;20488;-67
2021/05/06 10:22:51;;;;;;;10.80;10.10;;;11.20;99.90;;;;;;4954443;29;20816;-69
2021/05/06 10:25:20;;;;;;;10.87;10.30;;;11.20;99.90;;;;;;4953712;28;20499;-68
2021/05/06 10:27:46;;;;;;;12.60;11.17;;;11.00;99.90;;;;;;4954482;29;20510;-69
2021/05/06 10:30:14;;;;;;;11.70;10.87;;;11.10;99.90;;;;;;4954014;29;20451;-68
2021/05/06 10:32:44;;;;;;;11.43;10.33;;;11.10;99.90;;;;;;4954170;29;21190;-68
2021/05/06 10:35:14;;;;;;;11.50;10.57;;;11.10;99.90;;;;;;4953930;29;20437;-69
2021/05/06 10:37:44;;;;;;;10.00;9.50;;;11.20;99.90;;;;;;4954281;29;20937;-68
2021/05/06 10:40:32;;;;;;;10.47;9.40;;;11.30;99.90;;;;;;4954064;29;20463;-69
2021/05/06 10:43:18;;;;;;;9.73;9.10;;;11.30;99.90;;;;;;4953922;29;20888;-69
2021/05/06 10:45:55;;;;;;;10.00;9.50;;;11.20;99.90;;;;;;4953747;29;20492;-68
2021/05/06 10:48:21;;;;;;;10.30;9.37;;;11.20;99.90;;;;;;4953998;29;20815;-69
2021/05/06 10:50:47;;;;;;;9.63;8.83;;;11.20;99.90;;;;;;4954031;29;20766;-69
2021/05/06 10:53:26;;;;;;;10.70;10.10;;;11.20;99.90;;;;;;4953212;28;20457;-69
2021/05/06 10:55:54;;;;;;;10.20;9.70;;;11.20;99.90;;;;;;4953867;29;20823;-68
2021/05/06 10:58:40;;;;;;;8.63;8.03;;;11.30;99.90;;;;;;4953747;29;20969;-69
2021/05/06 11:01:40;;;;;;;8.23;7.83;;;11.30;99.90;;;;;;4953951;29;20892;-68
2021/05/06 11:04:09;;;;;;;8.40;8.00;;;11.60;99.90;;;;;;4954070;29;20443;-68
2021/05/06 11:06:43;;;;;;;8.03;7.83;;;11.50;99.90;;;;;;4953259;29;20519;-68
2021/05/06 11:09:43;;;;;;;9.60;9.10;;;11.60;99.90;;;;;;4953506;29;20523;-68
2021/05/06 11:12:39;;;;;;;9.07;8.63;;;11.50;99.90;;;;;;4950036;28;20979;-69
2021/05/06 11:15:30;;;;;;;9.57;9.00;;;11.60;99.90;;;;;;4953581;28;20452;-69
2021/05/06 11:18:05;;;;;;;9.33;8.93;;;11.80;99.90;;;;;;4953312;29;20464;-69
2021/05/06 11:20:51;;;;;;;14.63;10.70;;;11.80;99.90;;;;;;4953675;29;20814;-69
2021/05/06 11:23:33;;;;;;;8.57;8.27;;;12.00;99.90;;;;;;4953312;29;20456;-69
2021/05/06 11:26:15;;;;;;;9.30;8.90;;;12.20;99.90;;;;;;4953098;29;20491;-68
2021/05/06 11:28:52;;;;;;;9.10;8.80;;;12.50;99.90;;;;;;4953320;29;20456;-68
2021/05/06 11:31:49;;;;;;;10.73;10.00;;;12.50;99.90;;;;;;4953338;29;20451;-68
2021/05/06 11:34:37;;;;;;;11.27;10.47;;;12.70;99.90;;;;;;4953148;29;20539;-68
2021/05/06 11:37:15;;;;;;;10.20;9.63;;;12.70;99.90;;;;;;4953330;29;20492;-69
2021/05/06 11:39:55;;;;;;;10.10;9.60;;;12.70;99.90;;;;;;4952864;29;20456;-69
2021/05/06 11:42:23;;;;;;;10.10;9.70;;;12.90;99.90;;;;;;4952915;29;20441;-68
2021/05/06 11:45:10;;;;;;;10.57;9.97;;;13.10;99.90;;;;;;4952836;29;20802;-68
2021/05/06 11:47:36;;;;;;;8.70;8.40;;;12.70;99.90;;;;;;4952844;29;20577;-68
2021/05/06 11:50:15;;;;;;;9.83;9.43;;;12.60;99.90;;;;;;4953139;29;20463;-68
2021/05/06 11:52:41;;;;;;;8.93;8.53;;;12.80;99.90;;;;;;4952648;29;21133;-68
2021/05/06 11:55:08;;;;;;;9.57;8.90;;;12.90;99.90;;;;;;4952792;29;20449;-68
2021/05/06 11:57:34;;;;;;;9.17;8.73;;;13.00;99.90;;;;;;4952545;29;20444;-68
2021/05/06 12:00:01;;;;;;;9.40;8.80;;;12.80;99.90;;;;;;4952828;29;20453;-68
2021/05/06 12:02:28;;;;;;;9.67;9.27;;;12.90;99.90;;;;;;4952886;29;20459;-68
2021/05/06 12:04:54;;;;;;;9.90;9.30;;;13.00;99.90;;;;;;4951407;28;20801;-68
2021/05/06 12:07:22;;;;;;;9.30;8.90;;;13.10;99.90;;;;;;4951887;29;20457;-69
2021/05/06 12:09:48;;;;;;;9.10;8.80;;;13.00;99.90;;;;;;4952439;29;20472;-68
2021/05/06 12:12:21;;;;;;;9.50;9.10;;;12.90;99.90;;;;;;4952257;28;20493;-68
2021/05/06 12:14:47;;;;;;;8.97;8.67;;;12.70;99.90;;;;;;4952540;29;20814;-68
2021/05/06 12:17:18;;;;;;;9.10;8.70;;;12.90;99.90;;;;;;4952084;29;20455;-69
2021/05/06 12:19:47;;;;;;;8.67;8.37;;;13.00;99.90;;;;;;4952442;29;20716;-69
2021/05/06 12:22:14;;;;;;;8.93;8.63;;;13.20;99.90;;;;;;4952339;29;20468;-70
2021/05/06 12:24:42;;;;;;;8.70;8.30;;;13.10;99.90;;;;;;4952341;29;20456;-69
2021/05/06 12:27:16;;;;;;;9.30;8.90;;;13.10;99.90;;;;;;4952336;29;20535;-69
2021/05/06 12:29:43;;;;;;;8.20;7.90;;;13.20;99.90;;;;;;4951663;29;20453;-69
2021/05/06 12:32:16;;;;;;;8.17;7.77;;;13.20;99.90;;;;;;4951701;29;20453;-69
2021/05/06 12:34:43;;;;;;;8.20;7.90;;;13.20;99.90;;;;;;4951919;29;20452;-69
2021/05/06 12:37:10;;;;;;;8.53;8.33;;;13.20;99.90;;;;;;4952127;29;20964;-69
2021/05/06 12:39:36;;;;;;;9.63;9.33;;;13.30;99.90;;;;;;4951765;29;20456;-69
2021/05/06 12:42:05;;;;;;;13.80;13.40;;;13.30;99.90;;;;;;4952275;29;20444;-67
2021/05/06 12:44:39;;;;;;;15.93;15.33;;;13.10;99.90;;;;;;4951960;29;20444;-68
2021/05/06 12:47:22;;;;;;;17.83;17.23;;;12.90;99.90;;;;;;4952154;29;20492;-73
2021/05/06 12:49:50;;;;;;;15.70;15.10;;;12.80;99.90;;;;;;4952135;29;20456;-73
2021/05/06 12:52:38;;;;;;;17.33;16.70;;;12.70;99.90;;;;;;4952116;29;20811;-73
2021/05/06 12:55:19;;;;;;;18.87;18.17;;;11.90;99.90;;;;;;4947227;29;21111;-73
2021/05/06 12:57:46;;;;;;;18.40;17.80;;;11.60;99.90;;;;;;4951930;29;20456;-73
2021/05/06 13:00:18;;;;;;;18.90;18.23;;;11.40;99.90;;;;;;4951753;29;20458;-73
2021/05/06 13:02:45;;;;;;;19.07;18.37;;;11.30;99.90;;;;;;4951891;29;20453;-73
2021/05/06 13:05:13;;;;;;;22.27;21.40;;;11.20;99.90;;;;;;4951639;29;20496;-74
2021/05/06 13:07:52;;;;;;;21.93;21.10;;;11.20;99.90;;;;;;4951750;29;20950;-73
2021/05/06 13:10:35;;;;;;;21.30;20.50;;;11.10;99.90;;;;;;4953239;28;20483;-72
2021/05/06 13:13:02;;;;;;;24.00;22.80;;;11.00;99.90;;;;;;4971065;28;20854;-73
2021/05/06 13:15:29;;;;;;;23.00;22.20;;;11.00;99.90;;;;;;4970847;28;20952;-73
2021/05/06 13:17:56;;;;;;;25.50;24.60;;;11.10;99.90;;;;;;4973886;28;20459;-73
2021/05/06 13:20:25;;;;;;;27.40;26.40;;;11.10;99.90;;;;;;4974467;28;20498;-73
2021/05/06 13:23:04;;;;;;;29.93;28.70;;;11.10;99.90;;;;;;4974355;28;20545;-73
2021/05/06 13:25:49;;;;;;;28.50;27.30;;;11.10;99.90;;;;;;4974488;28;20483;-72
2021/05/06 13:28:17;;;;;;;30.57;29.37;;;11.00;99.90;;;;;;4974734;28;20475;-73
2021/05/06 13:30:43;;;;;;;30.33;29.13;;;11.00;99.90;;;;;;4974631;28;20451;-73
2021/05/06 13:33:15;;;;;;;30.20;29.03;;;10.80;99.90;;;;;;4974128;28;20505;-73
2021/05/06 13:35:42;;;;;;;30.20;29.10;;;10.70;99.90;;;;;;4974107;28;20451;-72
2021/05/06 13:38:09;;;;;;;29.00;28.00;;;10.70;99.90;;;;;;4974063;28;20867;-72
2021/05/06 13:40:35;;;;;;;29.77;28.60;;;10.50;99.90;;;;;;4974551;28;20460;-73
2021/05/06 13:43:01;;;;;;;29.27;28.00;;;10.50;99.90;;;;;;4974158;28;20474;-72
2021/05/06 13:45:27;;;;;;;31.30;29.80;;;10.30;99.90;;;;;;4973917;28;20486;-73
2021/05/06 13:47:53;;;;;;;30.27;28.97;;;10.10;99.90;;;;;;4974374;28;20459;-73
2021/05/06 13:50:20;;;;;;;30.10;28.70;;;10.00;99.90;;;;;;4974534;28;20444;-72
2021/05/06 13:52:46;;;;;;;29.77;28.47;;;10.10;99.90;;;;;;4973609;28;20486;-71
2021/05/06 13:55:14;;;;;;;30.60;29.30;;;10.20;99.90;;;;;;4973873;28;20965;-72
2021/05/06 13:57:42;;;;;;;32.57;31.17;;;10.10;99.90;;;;;;4974000;28;20460;-72
2021/05/06 14:00:10;;;;;;;33.23;31.73;;;9.90;99.90;;;;;;4973849;28;20468;-72
2021/05/06 14:02:37;;;;;;;33.43;31.70;;;10.00;99.90;;;;;;4973697;28;20812;-72
2021/05/06 14:05:04;;;;;;;33.17;31.70;;;10.10;99.90;;;;;;4973852;28;20912;-72
2021/05/06 14:07:30;;;;;;;33.03;31.50;;;10.30;99.90;;;;;;4973479;28;20451;-73
2021/05/06 14:09:56;;;;;;;32.43;31.10;;;10.50;99.90;;;;;;4973795;28;21185;-73
2021/05/06 14:12:23;;;;;;;31.97;30.67;;;10.40;99.90;;;;;;4973653;28;20490;-73
2021/05/06 14:14:49;;;;;;;31.43;30.03;;;10.50;99.90;;;;;;4973892;28;20443;-73
2021/05/06 14:17:16;;;;;;;29.43;28.33;;;10.60;99.90;;;;;;4973528;28;20461;-73
2021/05/06 14:19:42;;;;;;;29.10;27.70;;;10.40;99.90;;;;;;4973538;28;20458;-73
2021/05/06 14:22:08;;;;;;;29.83;28.53;;;10.30;99.90;;;;;;4973799;28;20462;-73
2021/05/06 14:24:35;;;;;;;30.97;29.60;;;10.20;99.90;;;;;;4973816;28;20969;-72
2021/05/06 14:27:01;;;;;;;29.80;28.50;;;10.30;99.90;;;;;;4973745;28;20488;-74
2021/05/06 14:29:28;;;;;;;28.80;27.60;;;10.40;99.90;;;;;;4972397;28;20448;-73
2021/05/06 14:31:55;;;;;;;30.43;29.03;;;10.30;99.90;;;;;;4973280;28;20455;-71
2021/05/06 14:34:21;;;;;;;31.13;29.43;;;10.20;99.90;;;;;;4973386;28;20507;-72
2021/05/06 14:36:47;;;;;;;30.00;28.37;;;10.30;99.90;;;;;;4973578;28;20453;-72
2021/05/06 14:39:14;;;;;;;29.67;28.50;;;10.00;99.90;;;;;;4973004;28;20574;-72
2021/05/06 14:41:42;;;;;;;28.00;26.80;;;10.10;99.90;;;;;;4973153;28;21033;-72
2021/05/06 14:44:09;;;;;;;29.50;28.40;;;10.20;99.90;;;;;;4973077;28;20542;-72
2021/05/06 14:46:36;;;;;;;30.00;28.77;;;10.20;99.90;;;;;;4973232;28;20483;-72
2021/05/06 14:49:03;;;;;;;29.10;28.00;;;10.20;99.90;;;;;;4973167;28;20868;-73
2021/05/06 14:51:29;;;;;;;28.50;27.30;;;10.00;99.90;;;;;;4973120;28;20478;-73
2021/05/06 14:53:55;;;;;;;27.00;26.00;;;10.00;99.90;;;;;;4973121;28;20465;-73
2021/05/06 14:56:21;;;;;;;27.50;26.40;;;10.00;99.90;;;;;;4973285;28;20450;-73
2021/05/06 14:58:47;;;;;;;28.37;27.30;;;10.00;99.90;;;;;;4972955;28;20466;-72
2021/05/06 15:01:13;;;;;;;28.10;27.10;;;10.00;99.90;;;;;;4972901;28;20511;-73
2021/05/06 15:03:41;;;;;;;27.10;26.10;;;9.80;99.90;;;;;;4972999;28;20447;-73
2021/05/06 15:06:07;;;;;;;29.30;28.07;;;9.80;99.90;;;;;;4972535;28;20491;-73
2021/05/06 15:08:33;;;;;;;27.03;26.03;;;9.70;99.90;;;;;;4972680;28;20448;-72
2021/05/06 15:10:59;;;;;;;30.20;29.07;;;9.80;99.90;;;;;;4972356;28;20530;-73
2021/05/06 15:13:26;;;;;;;28.53;27.43;;;9.70;99.90;;;;;;4972576;28;20452;-73
2021/05/06 15:15:52;;;;;;;28.67;27.40;;;9.70;99.90;;;;;;4972537;28;20954;-73
2021/05/06 15:18:18;;;;;;;26.83;25.67;;;9.90;99.90;;;;;;4972949;28;20459;-73
2021/05/06 15:20:45;;;;;;;29.13;27.90;;;9.90;99.90;;;;;;4972445;28;20550;-73
2021/05/06 15:23:11;;;;;;;29.00;27.90;;;9.80;99.90;;;;;;4972182;28;20827;-74
2021/05/06 15:25:37;;;;;;;29.00;27.80;;;9.90;99.90;;;;;;4972508;28;20496;-72
2021/05/06 15:28:04;;;;;;;29.23;28.13;;;9.90;99.90;;;;;;4972562;28;20480;-74
2021/05/06 15:30:30;;;;;;;29.17;27.87;;;10.00;99.90;;;;;;4972318;28;20469;-74
2021/05/06 15:32:59;;;;;;;27.87;26.77;;;9.90;99.90;;;;;;4972103;28;20466;-74
2021/05/06 15:35:25;;;;;;;29.63;28.43;;;9.90;99.90;;;;;;4971953;28;21047;-74
2021/05/06 15:37:53;;;;;;;29.70;28.50;;;10.00;99.90;;;;;;4972207;28;20490;-74
2021/05/06 15:40:20;;;;;;;30.90;29.50;;;10.00;99.90;;;;;;4971889;28;20459;-74
2021/05/06 15:42:46;;;;;;;30.03;28.77;;;9.90;99.90;;;;;;4972205;28;20457;-73
2021/05/06 15:45:14;;;;;;;27.93;26.93;;;9.80;99.90;;;;;;4971954;28;20455;-72
2021/05/06 15:47:40;;;;;;;29.70;28.50;;;9.80;99.90;;;;;;4972052;28;20448;-72
2021/05/06 15:50:09;;;;;;;28.70;27.57;;;9.70;99.90;;;;;;4971915;28;20460;-72
2021/05/06 15:52:36;;;;;;;28.63;27.50;;;9.60;99.90;;;;;;4971651;28;20460;-72
2021/05/06 15:55:05;;;;;;;26.43;25.43;;;9.70;99.90;;;;;;4971978;28;20463;-72
2021/05/06 15:57:31;;;;;;;27.93;26.73;;;9.60;99.90;;;;;;4971928;28;20494;-73
2021/05/06 15:59:58;;;;;;;27.30;26.30;;;9.60;99.90;;;;;;4971777;28;20725;-73
2021/05/06 16:02:25;;;;;;;27.50;26.27;;;9.60;99.90;;;;;;4971401;28;20666;-74
2021/05/06 16:04:52;;;;;;;29.27;28.07;;;9.60;99.90;;;;;;4971610;28;20460;-73
2021/05/06 16:07:19;;;;;;;26.40;25.47;;;9.60;99.90;;;;;;4971846;28;20483;-73
2021/05/06 16:09:45;;;;;;;26.43;25.43;;;9.70;99.90;;;;;;4971803;28;20539;-73
2021/05/06 16:12:12;;;;;;;27.47;26.37;;;9.60;99.90;;;;;;4971414;28;20490;-73
2021/05/06 16:14:38;;;;;;;27.83;26.83;;;9.60;99.90;;;;;;4971583;28;20954;-73
2021/05/06 16:17:05;;;;;;;28.67;27.37;;;9.60;99.90;;;;;;4971614;28;20455;-73
2021/05/06 16:19:31;;;;;;;27.17;26.17;;;10.10;99.90;;;;;;4971333;28;21024;-72
2021/05/06 16:21:57;;;;;;;26.87;25.90;;;9.60;99.90;;;;;;4971473;28;20444;-73
2021/05/06 16:24:24;;;;;;;25.30;24.30;;;9.70;99.90;;;;;;4971160;28;20825;-73
2021/05/06 16:26:51;;;;;;;23.40;22.50;;;9.70;99.90;;;;;;4971367;28;20510;-73
2021/05/06 16:29:19;;;;;;;24.67;23.73;;;9.70;99.90;;;;;;4971460;28;20455;-73
2021/05/06 16:31:45;;;;;;;23.33;22.53;;;11.30;99.90;;;;;;4971634;28;20439;-74
2021/05/06 16:34:14;;;;;;;23.20;22.30;;;10.10;99.90;;;;;;4971011;28;20518;-72
2021/05/06 16:36:44;;;;;;;22.33;21.43;;;10.20;99.90;;;;;;4971331;28;20741;-72
2021/05/06 16:39:21;;;;;;;19.10;18.30;;;10.20;99.90;;;;;;4971143;28;20899;-72
2021/05/06 16:41:51;;;;;;;19.50;18.80;;;10.10;99.90;;;;;;4971338;28;20598;-73
2021/05/06 16:44:27;;;;;;;18.07;17.37;;;10.00;99.90;;;;;;4971216;28;20497;-73
2021/05/06 16:46:56;;;;;;;17.17;16.57;;;9.90;99.90;;;;;;4971003;28;20486;-72
2021/05/06 16:49:23;;;;;;;17.67;17.07;;;9.90;99.90;;;;;;4971082;28;20871;-72
2021/05/06 16:51:49;;;;;;;16.60;16.00;;;9.90;99.90;;;;;;4973970;28;20459;-72
2021/05/06 16:54:15;;;;;;;16.40;15.70;;;9.90;99.90;;;;;;4977591;28;20461;-73
2021/05/06 16:56:41;;;;;;;16.10;15.53;;;10.00;99.90;;;;;;4977533;28;20452;-73
2021/05/06 16:59:08;;;;;;;15.10;14.50;;;9.90;99.90;;;;;;4977632;28;20792;-72
2021/05/06 17:01:37;;;;;;;15.43;14.87;;;10.00;99.90;;;;;;4978006;28;20463;-73
2021/05/06 17:04:03;;;;;;;16.17;15.60;;;10.30;99.90;;;;;;4977403;28;20541;-72
2021/05/06 17:06:29;;;;;;;15.33;14.60;;;10.00;99.90;;;;;;4977550;28;20487;-72
2021/05/06 17:08:58;;;;;;;17.43;16.63;;;10.00;99.90;;;;;;4977279;28;20449;-72
2021/05/06 17:11:24;;;;;;;18.90;17.90;;;10.10;99.90;;;;;;4977161;28;21078;-72
2021/05/06 17:13:50;;;;;;;22.00;20.90;;;10.10;99.90;;;;;;4977310;28;20455;-72
2021/05/06 17:16:16;;;;;;;24.33;23.23;;;10.20;99.90;;;;;;4977714;28;20451;-72
2021/05/06 17:18:45;;;;;;;24.77;23.77;;;10.20;99.90;;;;;;4977332;28;20513;-71
2021/05/06 17:21:11;;;;;;;25.33;24.33;;;10.20;99.90;;;;;;4977622;28;20467;-72
2021/05/06 17:23:38;;;;;;;25.30;24.30;;;10.20;99.90;;;;;;4977195;28;20452;-72
2021/05/06 17:26:04;;;;;;;25.00;23.60;;;10.10;99.90;;;;;;4977291;28;20486;-73
2021/05/06 17:28:31;;;;;;;23.30;22.40;;;9.90;99.90;;;;;;4977516;28;20449;-72
2021/05/06 17:30:57;;;;;;;24.20;23.30;;;9.90;99.90;;;;;;4977411;28;20451;-72
2021/05/06 17:33:24;;;;;;;25.10;24.00;;;9.90;99.90;;;;;;4977328;28;20456;-72